Terminal Aerodrome Forecast
Issued by NWS North Platte, NE

Home | Current Version | Previous Version | Graphics & Text | Print | Product List | Glossary On
Versions: 1 2 3 4 5 6 7 8 9 10 11 12 13 14 15 16 17 18 19 20 21
000
FTUS43 KLBF 161700
TAFVTN
TAF
KVTN 161720Z 1618/1718 32012KT P6SM FEW035 BKN110
     FM161900 01010KT P6SM SCT035 SCT050 BKN100
     FM170600 03008KT P6SM -SHRA OVC015
      TEMPO 1708/1712 2SM RA BKN007
     FM171200 03008KT 3SM -RA BKN007 OVC015=

USA.gov is the U.S. government's official web portal to all federal, state and local government web resources and services.